This is the latest recevied weather packets stored in our database for station/object KC3ULW-13. If no packets are shown the sender has not sent any weather packets the latest 10 day(s).
| Time | Temp. | Humidity | Pressure | Rain* | Wind** | Luminosity | Snow |
|---|---|---|---|---|---|---|---|
| 1777906567 | 18.33° C | 47% | 1013.2 hPa | 0 mm | - | 735 W/m² | - |
| 1777905958 | 18.33° C | 47% | 1013.3 hPa | 0 mm | - | 666 W/m² | - |
| 1777905050 | 18.33° C | 47% | 1013.1 hPa | 0 mm | - | 641 W/m² | - |
| 1777904141 | 17.78° C | 48% | 1013.1 hPa | 0 mm | - | 619 W/m² | - |
| 1777903838 | 17.22° C | 48% | 1013.3 hPa | 0 mm | - | 592 W/m² | - |
| 1777901716 | 16.11° C | 48% | 1013.6 hPa | 0 mm | - | 446 W/m² | - |
| 1777901414 | 16.11° C | 47% | 1013.3 hPa | 0 mm | - | 396 W/m² | - |
| 1777901111 | 15.56° C | 49% | 1013.5 hPa | 0 mm | - | 367 W/m² | - |
| 1777900809 | 15.56° C | 49% | 1013.7 hPa | 0 mm | - | 337 W/m² | - |
| 1777900506 | 15.56° C | 49% | 1013.5 hPa | 0 mm | - | 332 W/m² | - |
| 1777899899 | 15° C | 50% | 1013.5 hPa | 0 mm | - | 292 W/m² | - |
| 1777898384 | 13.33° C | 54% | 1013.4 hPa | 0 mm | - | 59 W/m² | - |
| 1777898082 | 13.33° C | 54% | 1013.6 hPa | 0 mm | - | 60 W/m² | - |
| 1777897778 | 12.78° C | 54% | 1013.3 hPa | 0 mm | - | 55 W/m² | - |
| 1777897475 | 12.78° C | 55% | 1013.5 hPa | 0 mm | - | 53 W/m² | - |
| 1777897171 | 12.78° C | 55% | 1013.5 hPa | 0 mm | - | 52 W/m² | - |
| 1777896867 | 12.22° C | 56% | 1013.3 hPa | 0 mm | - | 49 W/m² | - |
| 1777896565 | 12.22° C | 56% | 1013.5 hPa | 0 mm | - | 49 W/m² | - |
| 1777896261 | 12.22° C | 56% | 1013.1 hPa | 0 mm | - | 47 W/m² | - |
| 1777895960 | 12.22° C | 56% | 1013.4 hPa | 0 mm | - | 46 W/m² | - |
| 1777895657 | 11.67° C | 56% | 1013.4 hPa | 0 mm | - | 45 W/m² | - |
| 1777894749 | 11.67° C | 58% | 1013.2 hPa | 0 mm | - | 41 W/m² | - |
| 1777894445 | 11.11° C | 57% | 1013.5 hPa | 0 mm | - | 38 W/m² | - |
| 1777894143 | 11.67° C | 58% | 1013.7 hPa | 0 mm | - | 34 W/m² | - |
| 1777893840 | 11.11° C | 57% | 1013.5 hPa | 0 mm | - | 41 W/m² | - |
* Rain latest hour (hover to see other rain measurements)
** Current wind speed in m/s (hover to see current wind gust speed)